createdAt,value
2018-12-13T00:00:11.726Z,0
2018-12-13T00:03:39.600Z,0
2018-12-13T00:07:07.473Z,0
2018-12-13T00:10:36.332Z,0
2018-12-13T00:14:04.204Z,0
2018-12-13T00:17:32.074Z,0
2018-12-13T00:20:59.940Z,0
2018-12-13T00:24:27.812Z,0
2018-12-13T00:27:55.708Z,0
2018-12-13T00:31:23.576Z,0
2018-12-13T00:34:51.478Z,0
2018-12-13T00:38:19.338Z,0
2018-12-13T00:41:47.214Z,0
2018-12-13T00:45:15.110Z,0
2018-12-13T00:48:42.970Z,0
2018-12-13T00:52:10.838Z,0
2018-12-13T00:55:38.711Z,0
2018-12-13T00:59:07.556Z,0
2018-12-13T01:02:35.438Z,0
2018-12-13T01:06:04.312Z,0
2018-12-13T01:09:32.163Z,0
2018-12-13T01:13:00.046Z,0
2018-12-13T01:16:27.923Z,0
2018-12-13T01:19:55.789Z,0
2018-12-13T01:23:23.644Z,0
2018-12-13T01:26:51.526Z,0
2018-12-13T01:30:19.424Z,0
2018-12-13T01:33:47.282Z,0
2018-12-13T01:37:15.173Z,0
2018-12-13T01:40:43.027Z,0
2018-12-13T01:44:10.889Z,0
2018-12-13T01:47:38.772Z,0
2018-12-13T01:51:06.653Z,0
2018-12-13T01:54:34.546Z,0
2018-12-13T01:58:03.426Z,0
2018-12-13T02:01:31.330Z,0
2018-12-13T02:04:59.235Z,0
2018-12-13T02:08:27.107Z,0
2018-12-13T02:11:54.995Z,0
2018-12-13T02:15:22.884Z,0
2018-12-13T02:18:50.760Z,0
2018-12-13T02:22:18.666Z,0
2018-12-13T02:25:47.547Z,0
2018-12-13T02:29:15.430Z,0
2018-12-13T02:32:43.300Z,0
2018-12-13T02:36:11.198Z,0
2018-12-13T02:39:39.076Z,0
2018-12-13T02:43:06.979Z,0
2018-12-13T02:46:34.868Z,0
2018-12-13T02:50:02.762Z,0
2018-12-13T02:53:30.636Z,0
2018-12-13T02:56:58.530Z,0
2018-12-13T03:00:26.406Z,0
2018-12-13T03:03:54.286Z,0
2018-12-13T03:07:22.160Z,0
2018-12-13T03:10:51.041Z,0
2018-12-13T03:14:19.922Z,0
2018-12-13T03:17:47.805Z,0
2018-12-13T03:21:15.690Z,0
2018-12-13T03:24:43.575Z,0
2018-12-13T03:28:11.443Z,0
2018-12-13T03:31:39.344Z,0
2018-12-13T03:35:07.230Z,0
2018-12-13T03:38:35.120Z,0
2018-12-13T03:42:02.992Z,0
2018-12-13T03:45:30.893Z,0
2018-12-13T03:48:58.755Z,0
2018-12-13T03:52:27.626Z,0
2018-12-13T03:55:55.516Z,0
2018-12-13T03:59:23.393Z,0
2018-12-13T04:02:51.277Z,0
2018-12-13T04:06:19.157Z,0
2018-12-13T04:09:47.027Z,0
2018-12-13T04:13:14.905Z,0
2018-12-13T04:16:42.801Z,0
2018-12-13T04:20:10.688Z,0
2018-12-13T04:23:38.562Z,0
2018-12-13T04:27:06.452Z,0
2018-12-13T04:30:34.352Z,0
2018-12-13T04:34:02.235Z,0
2018-12-13T04:37:35.214Z,0
2018-12-13T04:41:01.957Z,0
2018-12-13T04:44:30.815Z,0
2018-12-13T04:47:59.689Z,0
2018-12-13T04:51:27.573Z,0
2018-12-13T04:54:55.443Z,0
2018-12-13T04:58:23.320Z,0
2018-12-13T05:01:52.191Z,0
2018-12-13T05:05:20.105Z,0
2018-12-13T05:08:47.953Z,0
2018-12-13T05:12:15.932Z,0
2018-12-13T05:15:43.822Z,0
2018-12-13T05:19:11.687Z,0
2018-12-13T05:22:39.570Z,0
2018-12-13T05:26:08.448Z,0
2018-12-13T05:29:36.312Z,0
2018-12-13T05:33:04.191Z,0
2018-12-13T05:36:32.088Z,0
2018-12-13T05:40:00.044Z,0
2018-12-13T05:43:28.938Z,0
2018-12-13T05:46:56.858Z,0
2018-12-13T05:50:24.744Z,0
2018-12-13T05:53:52.607Z,0
2018-12-13T05:57:20.495Z,0
2018-12-13T06:00:48.405Z,0
2018-12-13T06:04:16.273Z,0
2018-12-13T06:07:44.160Z,0
2018-12-13T06:11:12.043Z,0
2018-12-13T06:14:39.922Z,0
2018-12-13T06:18:09.803Z,0
2018-12-13T06:21:39.664Z,0
2018-12-13T06:25:07.530Z,0
2018-12-13T06:28:35.412Z,0
2018-12-13T06:32:04.299Z,0
2018-12-13T06:35:32.169Z,0
2018-12-13T06:39:00.062Z,0
2018-12-13T06:42:27.940Z,0
2018-12-13T06:45:55.823Z,0
2018-12-13T06:49:23.716Z,0
2018-12-13T06:52:51.605Z,0
2018-12-13T06:56:19.523Z,0
2018-12-13T06:59:47.389Z,0
2018-12-13T07:03:15.282Z,0
2018-12-13T07:06:43.174Z,0
2018-12-13T07:10:12.034Z,0
2018-12-13T07:13:39.923Z,0
2018-12-13T07:17:07.835Z,0
2018-12-13T07:20:35.698Z,5.625
2018-12-13T07:24:03.588Z,5.625
2018-12-13T07:27:31.488Z,5.625
2018-12-13T07:30:59.355Z,11.25
2018-12-13T07:34:27.260Z,11.25
2018-12-13T07:37:55.156Z,16.875
2018-12-13T07:41:23.028Z,16.875
2018-12-13T07:44:50.917Z,22.5
2018-12-13T07:48:18.818Z,22.5
2018-12-13T07:51:47.728Z,16.875
2018-12-13T07:55:16.591Z,22.5
2018-12-13T07:58:44.478Z,22.5
2018-12-13T08:02:12.371Z,16.875
2018-12-13T08:05:40.238Z,22.5
2018-12-13T08:09:08.136Z,28.125
2018-12-13T08:12:36.031Z,39.375
2018-12-13T08:16:03.904Z,56.25
2018-12-13T08:19:31.798Z,67.5
2018-12-13T08:22:59.679Z,73.125
2018-12-13T08:26:27.542Z,73.125
2018-12-13T08:29:55.437Z,73.125
2018-12-13T08:33:23.321Z,67.5
2018-12-13T08:36:51.203Z,67.5
2018-12-13T08:40:19.119Z,67.5
2018-12-13T08:43:47.010Z,56.25
2018-12-13T08:47:14.899Z,61.875
2018-12-13T08:50:42.770Z,67.5
2018-12-13T08:54:10.661Z,67.5
2018-12-13T08:57:38.549Z,67.5
2018-12-13T09:01:07.287Z,73.125
2018-12-13T09:04:35.166Z,45
2018-12-13T09:08:04.047Z,45
2018-12-13T09:11:31.915Z,50.625
2018-12-13T09:14:59.806Z,56.25
2018-12-13T09:18:27.696Z,73.125
2018-12-13T09:21:55.552Z,56.25
2018-12-13T09:25:23.444Z,67.5
2018-12-13T09:28:51.333Z,106.875
2018-12-13T09:32:19.219Z,118.125
2018-12-13T09:35:47.153Z,95.625
2018-12-13T09:39:15.010Z,78.75
2018-12-13T09:42:42.876Z,78.75
2018-12-13T09:46:10.767Z,84.375
2018-12-13T09:49:38.665Z,90
2018-12-13T09:53:06.539Z,101.25
2018-12-13T09:56:34.423Z,95.625
2018-12-13T10:00:02.313Z,78.75
2018-12-13T10:03:30.186Z,84.375
2018-12-13T10:06:58.074Z,106.875
2018-12-13T10:10:25.958Z,112.5
2018-12-13T10:13:53.848Z,112.5
2018-12-13T10:17:21.751Z,118.125
2018-12-13T10:20:49.630Z,129.375
2018-12-13T10:24:17.511Z,129.375
2018-12-13T10:27:45.411Z,135
2018-12-13T10:31:13.307Z,129.375
2018-12-13T10:34:41.196Z,123.75
2018-12-13T10:38:09.065Z,106.875
2018-12-13T10:41:36.955Z,95.625
2018-12-13T10:45:04.858Z,90
2018-12-13T10:48:33.780Z,95.625
2018-12-13T10:52:01.632Z,101.25
2018-12-13T10:55:29.529Z,112.5
2018-12-13T10:58:57.422Z,112.5
2018-12-13T11:02:25.433Z,118.125
2018-12-13T11:05:53.319Z,118.125
2018-12-13T11:09:21.213Z,112.5
2018-12-13T11:12:49.098Z,112.5
2018-12-13T11:16:17.034Z,112.5
2018-12-13T11:19:46.168Z,118.125
2018-12-13T11:23:14.036Z,118.125
2018-12-13T11:26:41.943Z,135
2018-12-13T11:30:09.842Z,135
2018-12-13T11:33:37.741Z,146.25
2018-12-13T11:37:05.616Z,140.625
2018-12-13T11:40:33.502Z,174.375
2018-12-13T11:44:02.380Z,140.625
2018-12-13T11:47:31.271Z,157.5
2018-12-13T11:50:59.157Z,129.375
2018-12-13T11:54:27.086Z,146.25
2018-12-13T11:57:54.967Z,90
2018-12-13T12:01:22.848Z,73.125
2018-12-13T12:04:50.742Z,73.125
2018-12-13T12:08:18.613Z,95.625
2018-12-13T12:11:46.495Z,129.375
2018-12-13T12:15:14.383Z,140.625
2018-12-13T12:18:42.253Z,180
2018-12-13T12:22:10.154Z,202.5
2018-12-13T12:25:38.061Z,208.125
2018-12-13T12:29:05.927Z,253.125
2018-12-13T12:32:33.814Z,168.75
2018-12-13T12:36:02.695Z,157.5
2018-12-13T12:39:30.572Z,185.625
2018-12-13T12:42:58.460Z,151.875
2018-12-13T12:46:26.355Z,140.625
2018-12-13T12:49:54.227Z,157.5
2018-12-13T12:53:22.128Z,213.75
2018-12-13T12:56:50.004Z,191.25
2018-12-13T13:00:17.897Z,50.625
2018-12-13T13:03:45.805Z,45
2018-12-13T13:07:13.698Z,28.125
2018-12-13T13:10:41.567Z,33.75
2018-12-13T13:14:09.459Z,45
2018-12-13T13:17:37.340Z,56.25
2018-12-13T13:21:05.265Z,45
2018-12-13T13:24:33.146Z,56.25
2018-12-13T13:28:01.037Z,50.625
2018-12-13T13:31:28.924Z,50.625
2018-12-13T13:34:56.800Z,45
2018-12-13T13:38:24.688Z,39.375
2018-12-13T13:41:52.569Z,39.375
2018-12-13T13:45:20.442Z,39.375
2018-12-13T13:48:48.341Z,33.75
2018-12-13T13:52:16.229Z,22.5
2018-12-13T13:55:44.105Z,22.5
2018-12-13T13:59:12.004Z,28.125
2018-12-13T14:02:40.876Z,39.375
2018-12-13T14:06:08.774Z,28.125
2018-12-13T14:09:39.636Z,22.5
2018-12-13T14:13:07.518Z,22.5
2018-12-13T14:16:36.403Z,28.125
2018-12-13T14:20:04.279Z,28.125
2018-12-13T14:23:32.165Z,16.875
2018-12-13T14:27:01.035Z,11.25
2018-12-13T14:30:28.926Z,5.625
2018-12-13T14:33:56.815Z,11.25
2018-12-13T14:37:24.693Z,11.25
2018-12-13T14:40:52.611Z,11.25
2018-12-13T14:44:20.487Z,5.625
2018-12-13T14:47:48.441Z,5.625
2018-12-13T14:51:16.333Z,0
2018-12-13T14:54:44.223Z,0
2018-12-13T14:58:12.117Z,0
2018-12-13T15:01:40.020Z,0
2018-12-13T15:05:07.885Z,0
2018-12-13T15:08:35.778Z,0
2018-12-13T15:12:03.654Z,0
2018-12-13T15:15:32.545Z,0
2018-12-13T15:19:00.482Z,0
2018-12-13T15:22:28.384Z,0
2018-12-13T15:25:57.268Z,0
2018-12-13T15:29:25.156Z,0
2018-12-13T15:32:53.039Z,0
2018-12-13T15:36:21.913Z,0
2018-12-13T15:39:49.790Z,0
2018-12-13T15:43:19.681Z,0
2018-12-13T15:46:47.568Z,0
2018-12-13T15:50:16.445Z,0
2018-12-13T15:53:44.372Z,0
2018-12-13T15:57:13.219Z,0
2018-12-13T16:00:41.091Z,0
2018-12-13T16:04:08.979Z,0
2018-12-13T16:07:36.876Z,0
2018-12-13T16:11:04.756Z,0
2018-12-13T16:14:32.679Z,0
2018-12-13T16:18:00.574Z,0
2018-12-13T16:21:28.492Z,0
2018-12-13T16:24:56.466Z,0
2018-12-13T16:28:24.370Z,0
2018-12-13T16:31:52.411Z,0
2018-12-13T16:35:20.263Z,0
2018-12-13T16:38:54.004Z,0
2018-12-13T16:42:22.131Z,0
2018-12-13T16:45:50.009Z,0
2018-12-13T16:50:11.244Z,0
2018-12-13T16:53:39.943Z,0
2018-12-13T16:57:07.846Z,0
2018-12-13T17:00:35.715Z,0
2018-12-13T17:04:03.617Z,0
2018-12-13T17:07:31.517Z,0
2018-12-13T17:10:59.413Z,0
2018-12-13T17:14:27.318Z,0
2018-12-13T17:17:55.215Z,0
2018-12-13T17:21:23.114Z,0
2018-12-13T17:24:51.020Z,0
2018-12-13T17:28:18.921Z,0
2018-12-13T17:31:46.815Z,0
2018-12-13T17:35:14.718Z,0
2018-12-13T17:38:42.615Z,0
2018-12-13T17:42:11.525Z,0
2018-12-13T17:45:39.414Z,0
2018-12-13T17:49:08.322Z,0
2018-12-13T17:52:36.224Z,0
2018-12-13T17:56:05.088Z,0
2018-12-13T17:59:32.982Z,0
2018-12-13T18:03:00.871Z,0
2018-12-13T18:06:28.750Z,0
2018-12-13T18:09:56.650Z,0
2018-12-13T18:13:24.572Z,0
2018-12-13T18:16:52.429Z,0
2018-12-13T18:20:21.333Z,0
2018-12-13T18:23:50.233Z,0
2018-12-13T18:27:18.131Z,0
2018-12-13T18:30:46.033Z,0
2018-12-13T18:34:13.928Z,0
2018-12-13T18:37:42.802Z,0
2018-12-13T18:41:10.699Z,0
2018-12-13T18:44:38.582Z,0
2018-12-13T18:48:06.469Z,0
2018-12-13T18:51:35.363Z,0
2018-12-13T18:55:04.243Z,0
2018-12-13T18:58:32.113Z,0
2018-12-13T19:02:00.033Z,0
2018-12-13T19:05:27.945Z,0
2018-12-13T19:08:55.812Z,0
2018-12-13T19:12:23.710Z,0
2018-12-13T19:15:51.615Z,0
2018-12-13T19:19:19.502Z,0
2018-12-13T19:22:47.403Z,0
2018-12-13T19:26:15.295Z,0
2018-12-13T19:29:43.174Z,0
2018-12-13T19:33:12.094Z,0
2018-12-13T19:36:40.011Z,0
2018-12-13T19:40:07.967Z,0
2018-12-13T19:43:35.750Z,0
2018-12-13T19:47:03.656Z,0
2018-12-13T19:50:31.547Z,0
2018-12-13T19:53:59.428Z,0
2018-12-13T19:57:27.344Z,0
2018-12-13T20:00:55.256Z,0
2018-12-13T20:04:23.142Z,0
2018-12-13T20:07:51.049Z,0
2018-12-13T20:11:18.967Z,0
2018-12-13T20:14:46.860Z,0
2018-12-13T20:18:14.727Z,0
2018-12-13T20:21:42.618Z,0
2018-12-13T20:25:10.527Z,0
2018-12-13T20:28:38.416Z,0
2018-12-13T20:32:06.347Z,0
2018-12-13T20:35:34.254Z,0
2018-12-13T20:39:03.130Z,0
2018-12-13T20:42:31.058Z,0
2018-12-13T20:45:58.949Z,0
2018-12-13T20:49:30.905Z,0
2018-12-13T20:52:58.737Z,0
2018-12-13T20:56:26.698Z,0
2018-12-13T20:59:54.585Z,0
2018-12-13T21:03:22.479Z,0
2018-12-13T21:06:50.372Z,0
2018-12-13T21:10:19.232Z,0
2018-12-13T21:13:47.119Z,0
2018-12-13T21:17:15.000Z,0
2018-12-13T21:20:43.914Z,0
2018-12-13T21:24:11.753Z,0
2018-12-13T21:27:39.655Z,0
2018-12-13T21:31:07.540Z,0
2018-12-13T21:34:35.424Z,0
2018-12-13T21:38:03.311Z,0
2018-12-13T21:41:31.201Z,0
2018-12-13T21:44:59.080Z,0
2018-12-13T21:48:26.956Z,0
2018-12-13T21:51:54.852Z,0
2018-12-13T21:55:22.727Z,0
2018-12-13T21:58:50.617Z,0
2018-12-13T22:02:18.506Z,0
2018-12-13T22:05:46.385Z,0
2018-12-13T22:09:14.287Z,0
2018-12-13T22:12:42.180Z,0
2018-12-13T22:16:10.065Z,0
2018-12-13T22:19:37.939Z,0
2018-12-13T22:23:05.824Z,0
2018-12-13T22:26:33.718Z,0
2018-12-13T22:30:01.590Z,0
2018-12-13T22:33:30.489Z,0
2018-12-13T22:36:58.375Z,0
2018-12-13T22:40:26.287Z,0
2018-12-13T22:43:54.160Z,0
2018-12-13T22:47:22.044Z,0
2018-12-13T22:50:49.928Z,0
2018-12-13T22:54:18.805Z,0
2018-12-13T22:57:46.701Z,0
2018-12-13T23:01:14.599Z,0
2018-12-13T23:04:42.469Z,0
2018-12-13T23:08:10.352Z,0
2018-12-13T23:11:39.229Z,0
2018-12-13T23:15:07.108Z,0
2018-12-13T23:18:35.987Z,0
2018-12-13T23:22:03.885Z,0
2018-12-13T23:25:31.795Z,0
2018-12-13T23:29:00.659Z,0
2018-12-13T23:32:28.547Z,0
2018-12-13T23:35:56.447Z,0
2018-12-13T23:39:25.310Z,0
2018-12-13T23:42:53.229Z,0
2018-12-13T23:46:21.124Z,0
2018-12-13T23:49:49.007Z,0
2018-12-13T23:53:16.907Z,0
2018-12-13T23:56:44.795Z,0
